Time;durP1;ratioP1;P1;durP2;ratioP2;P2;SDS_P1;SDS_P2;PMS_P1;PMS_P2;Temp;Humidity;BMP_temperature;BMP_pressure;BME280_temperature;BME280_humidity;BME280_pressure;Samples;Min_cycle;Max_cycle;Signal;HPM_P1;HPM_P2
2022/08/21 00:00:11;;;;;;;5.60;3.40;;;;;;;16.38;100.00;101546.25;6184004;23;20001;-72
2022/08/21 00:02:37;;;;;;;5.20;3.58;;;;;;;16.36;100.00;101532.84;6181914;23;20043;-72
2022/08/21 00:05:03;;;;;;;7.40;3.50;;;;;;;16.26;100.00;101532.66;6184896;23;20005;-72
2022/08/21 00:07:29;;;;;;;8.77;3.88;;;;;;;16.33;100.00;101535.25;6184115;23;20712;-72
2022/08/21 00:09:54;;;;;;;8.77;3.72;;;;;;;16.33;100.00;101533.34;6183853;23;20065;-72
2022/08/21 00:12:19;;;;;;;4.78;3.15;;;;;;;16.26;100.00;101538.13;6183152;23;20374;-72
2022/08/21 00:14:45;;;;;;;6.88;3.83;;;;;;;16.18;100.00;101535.81;6184408;23;20027;-72
2022/08/21 00:17:10;;;;;;;5.72;3.55;;;;;;;16.13;100.00;101529.19;6158038;23;20012;-71
2022/08/21 00:19:35;;;;;;;7.18;3.50;;;;;;;16.12;100.00;101527.56;6156953;23;20015;-72
2022/08/21 00:22:01;;;;;;;6.43;3.50;;;;;;;16.07;100.00;101526.63;6184123;23;20002;-72
2022/08/21 00:24:27;;;;;;;5.47;3.60;;;;;;;16.07;100.00;101530.16;6184072;23;20005;-72
2022/08/21 00:26:52;;;;;;;6.05;3.83;;;;;;;16.08;100.00;101523.66;6158274;23;20063;-72
2022/08/21 00:29:18;;;;;;;7.57;3.72;;;;;;;16.05;100.00;101529.59;6183974;23;20012;-72
2022/08/21 00:31:44;;;;;;;6.80;3.83;;;;;;;16.06;100.00;101525.81;6183225;23;20012;-72
2022/08/21 00:34:11;;;;;;;6.78;4.18;;;;;;;16.03;100.00;101523.53;6186499;23;20005;-72
2022/08/21 00:36:36;;;;;;;9.07;4.10;;;;;;;16.01;100.00;101517.50;6186314;23;20005;-72
2022/08/21 00:39:05;;;;;;;8.15;3.72;;;;;;;16.04;100.00;101511.56;6186295;23;20005;-72
2022/08/21 00:41:30;;;;;;;8.50;4.50;;;;;;;15.99;100.00;101518.81;6185383;23;20005;-72
2022/08/21 00:43:56;;;;;;;9.70;4.43;;;;;;;15.99;100.00;101514.19;6186106;23;20415;-72
2022/08/21 00:46:21;;;;;;;8.38;4.38;;;;;;;16.00;100.00;101509.56;6159920;23;20009;-72
2022/08/21 00:48:47;;;;;;;6.20;4.40;;;;;;;16.05;100.00;101509.66;6186388;23;20005;-72
2022/08/21 00:51:25;;;;;;;6.95;4.40;;;;;;;16.07;100.00;101513.78;6159370;23;20008;-72
2022/08/21 00:53:55;;;;;;;5.38;4.40;;;;;;;16.01;100.00;101514.78;6186526;23;20080;-72
2022/08/21 00:56:23;;;;;;;8.57;4.63;;;;;;;16.03;100.00;101514.53;6186293;23;20072;-72
2022/08/21 00:58:51;;;;;;;7.70;4.35;;;;;;;16.07;100.00;101510.25;6159200;23;20423;-72
2022/08/21 01:01:17;;;;;;;9.80;4.93;;;;;;;15.96;100.00;101514.69;6182072;23;20012;-72
2022/08/21 01:03:42;;;;;;;10.45;5.13;;;;;;;15.99;100.00;101516.94;6159617;23;20080;-72
2022/08/21 01:06:08;;;;;;;10.15;5.07;;;;;;;15.89;100.00;101522.19;6186005;23;20005;-72
2022/08/21 01:08:35;;;;;;;9.15;5.18;;;;;;;15.87;100.00;101516.16;6185488;23;20017;-72
2022/08/21 01:11:01;;;;;;;8.73;4.75;;;;;;;15.84;100.00;101513.94;6185917;23;20008;-72
2022/08/21 01:13:30;;;;;;;10.43;4.90;;;;;;;15.86;100.00;101519.97;6185220;23;20008;-72
2022/08/21 01:15:59;;;;;;;7.15;4.50;;;;;;;15.79;100.00;101511.09;6185829;23;20005;-72
2022/08/21 01:18:26;;;;;;;6.88;4.90;;;;;;;15.76;100.00;101520.53;6158999;23;20013;-72
2022/08/21 01:21:16;;;;;;;10.32;4.93;;;;;;;15.77;100.00;101516.75;6184148;23;20553;-72
2022/08/21 01:23:45;;;;;;;9.50;5.05;;;;;;;15.74;100.00;101514.50;6186187;23;20001;-72
2022/08/21 01:26:13;;;;;;;8.63;4.75;;;;;;;15.68;100.00;101507.31;6159428;23;20051;-72
2022/08/21 01:28:49;;;;;;;9.38;4.40;;;;;;;15.74;100.00;101503.59;6185870;23;20414;-72
2022/08/21 01:31:17;;;;;;;6.53;4.65;;;;;;;15.75;100.00;101503.34;6181951;23;20360;-72
2022/08/21 01:33:43;;;;;;;8.10;4.60;;;;;;;15.66;100.00;101504.81;6184485;23;20065;-72
2022/08/21 01:36:11;;;;;;;7.88;4.32;;;;;;;15.69;100.00;101504.31;6186213;23;20012;-72
2022/08/21 01:38:36;;;;;;;7.07;5.10;;;;;;;15.71;100.00;101510.34;6185341;23;20009;-72
2022/08/21 01:41:02;;;;;;;8.63;5.13;;;;;;;15.68;100.00;101505.38;6185216;23;20016;-72
2022/08/21 01:43:30;;;;;;;7.82;4.90;;;;;;;15.71;100.00;101515.00;6185089;23;20438;-72
2022/08/21 01:45:55;;;;;;;7.35;4.72;;;;;;;15.64;100.00;101506.13;6158595;23;20005;-72
2022/08/21 01:48:20;;;;;;;8.45;5.35;;;;;;;15.59;100.00;101512.31;6185338;23;20505;-72
2022/08/21 01:50:46;;;;;;;9.35;5.20;;;;;;;15.53;100.00;101496.91;6184535;23;20109;-72
2022/08/21 01:53:11;;;;;;;8.65;4.80;;;;;;;15.52;100.00;101506.16;6185608;23;20059;-72
2022/08/21 01:55:39;;;;;;;7.18;4.95;;;;;;;15.54;100.00;101504.03;6185345;23;20008;-72
2022/08/21 01:58:05;;;;;;;8.45;5.20;;;;;;;15.46;100.00;101496.22;6185884;23;20362;-72
2022/08/21 02:00:30;;;;;;;9.50;5.43;;;;;;;15.40;100.00;101501.56;6182617;23;20091;-72
2022/08/21 02:02:55;;;;;;;9.23;5.30;;;;;;;15.36;100.00;101496.84;6185284;23;20005;-72
2022/08/21 02:05:21;;;;;;;7.85;5.60;;;;;;;15.41;100.00;101497.78;6185159;23;20004;-72
2022/08/21 02:07:53;;;;;;;7.72;4.82;;;;;;;15.38;100.00;101486.53;6185454;23;20067;-72
2022/08/21 02:10:26;;;;;;;6.28;4.95;;;;;;;15.37;100.00;101488.44;6184796;23;20004;-72
2022/08/21 02:12:55;;;;;;;8.40;4.82;;;;;;;15.35;100.00;101490.59;6185829;23;20013;-72
2022/08/21 02:15:20;;;;;;;6.47;4.75;;;;;;;15.23;100.00;101482.44;6185660;23;20016;-72
2022/08/21 02:17:52;;;;;;;11.23;5.30;;;;;;;15.27;100.00;101482.75;6159192;23;20335;-72
2022/08/21 02:20:25;;;;;;;5.97;4.63;;;;;;;15.19;100.00;101469.50;6184548;23;20012;-72
2022/08/21 02:22:51;;;;;;;5.80;4.70;;;;;;;15.18;100.00;101473.31;6185378;23;20546;-72
2022/08/21 02:25:17;;;;;;;8.90;5.20;;;;;;;15.06;100.00;101470.59;6159008;23;20030;-72
2022/08/21 02:27:46;;;;;;;8.23;5.13;;;;;;;15.10;100.00;101484.56;6183412;23;20087;-72
2022/08/21 02:30:15;;;;;;;9.43;5.00;;;;;;;15.01;100.00;101495.03;6185090;23;20334;-72
2022/08/21 02:32:42;;;;;;;7.18;4.97;;;;;;;15.01;100.00;101495.84;6183801;23;20024;-72
2022/08/21 02:35:09;;;;;;;8.20;5.40;;;;;;;14.97;100.00;101483.75;6184739;23;20371;-72
2022/08/21 02:37:41;;;;;;;13.05;5.88;;;;;;;14.95;100.00;101480.44;6184958;23;20067;-72
2022/08/21 02:40:11;;;;;;;10.75;5.38;;;;;;;14.95;100.00;101480.44;6184620;23;20008;-72
2022/08/21 02:42:36;;;;;;;6.82;5.45;;;;;;;15.03;100.00;101477.34;6185123;23;20001;-72
2022/08/21 02:45:03;;;;;;;7.65;5.53;;;;;;;15.01;100.00;101481.41;6185460;23;20012;-72
2022/08/21 02:47:28;;;;;;;10.38;5.85;;;;;;;15.01;100.00;101484.13;6185017;23;20001;-72
2022/08/21 02:49:53;;;;;;;9.18;5.50;;;;;;;14.97;100.00;101478.31;6184353;23;20005;-72
2022/08/21 02:52:21;;;;;;;8.82;5.82;;;;;;;14.94;100.00;101477.97;6184623;23;20473;-72
2022/08/21 02:54:47;;;;;;;11.90;6.03;;;;;;;14.93;100.00;101471.69;6185109;23;20087;-72
2022/08/21 02:57:12;;;;;;;10.52;6.43;;;;;;;14.88;100.00;101474.28;6185075;23;20453;-71
2022/08/21 02:59:39;;;;;;;10.40;7.30;;;;;;;14.91;100.00;101478.44;6184725;23;20005;-72
2022/08/21 03:02:04;;;;;;;11.85;7.60;;;;;;;14.94;100.00;101484.22;6155723;23;20067;-72
2022/08/21 03:04:29;;;;;;;11.98;7.95;;;;;;;14.89;100.00;101481.41;6158044;23;20435;-72
2022/08/21 03:06:55;;;;;;;13.15;8.15;;;;;;;14.93;100.00;101481.75;6184612;23;20381;-72
2022/08/21 03:09:20;;;;;;;13.02;7.85;;;;;;;14.87;100.00;101476.19;6184565;23;20005;-72
2022/08/21 03:11:46;;;;;;;11.48;8.15;;;;;;;14.80;100.00;101472.75;6184348;23;20032;-72
2022/08/21 03:14:11;;;;;;;13.50;7.50;;;;;;;14.73;100.00;101476.69;6184821;23;20005;-72
2022/08/21 03:16:37;;;;;;;11.02;7.95;;;;;;;14.67;100.00;101476.56;6158123;23;20012;-72
2022/08/21 03:19:03;;;;;;;11.02;7.40;;;;;;;14.64;100.00;101468.03;6183586;23;20005;-72
2022/08/21 03:21:28;;;;;;;13.05;7.40;;;;;;;14.66;100.00;101472.19;6183989;23;20001;-72
2022/08/21 03:23:54;;;;;;;13.45;7.70;;;;;;;14.62;100.00;101464.72;6185051;23;20037;-71
2022/08/21 03:26:19;;;;;;;13.70;7.85;;;;;;;14.62;100.00;101468.25;6158730;23;20024;-72
2022/08/21 03:28:45;;;;;;;13.57;7.90;;;;;;;14.60;100.00;101473.09;6184403;23;20009;-72
2022/08/21 03:31:10;;;;;;;9.63;6.97;;;;;;;14.51;100.00;101469.06;6182550;23;20012;-72
2022/08/21 03:33:35;;;;;;;11.50;7.43;;;;;;;14.57;100.00;101479.03;6183779;23;20029;-71
2022/08/21 03:36:05;;;;;;;11.48;7.00;;;;;;;14.51;100.00;101467.16;6184958;23;20330;-72
2022/08/21 03:38:32;;;;;;;13.52;7.30;;;;;;;14.50;100.00;101459.25;6184244;23;20005;-72
2022/08/21 03:40:58;;;;;;;12.10;6.97;;;;;;;14.53;100.00;101465.03;6184029;23;20441;-72
2022/08/21 03:43:26;;;;;;;12.05;7.10;;;;;;;14.52;100.00;101463.38;6183411;23;20005;-72
2022/08/21 03:45:52;;;;;;;11.60;7.28;;;;;;;14.49;100.00;101463.00;6158708;23;20012;-72
2022/08/21 03:48:18;;;;;;;12.23;7.60;;;;;;;14.53;100.00;101456.84;6184643;23;20005;-72
2022/08/21 03:50:46;;;;;;;12.95;7.45;;;;;;;14.51;100.00;101450.84;6183753;23;20012;-72
2022/08/21 03:53:13;;;;;;;11.88;7.72;;;;;;;14.51;100.00;101459.00;6183929;23;20097;-71
2022/08/21 03:55:41;;;;;;;8.77;6.95;;;;;;;14.50;100.00;101448.34;6158248;23;20537;-72
2022/08/21 03:58:06;;;;;;;13.18;6.95;;;;;;;14.46;100.00;101452.59;6184837;23;20085;-72
2022/08/21 04:00:32;;;;;;;12.20;7.03;;;;;;;14.45;100.00;101459.13;6181198;23;20434;-72
2022/08/21 04:02:57;;;;;;;10.75;6.63;;;;;;;14.35;100.00;101452.34;6184586;23;20080;-72
2022/08/21 04:05:29;;;;;;;10.23;6.88;;;;;;;14.33;100.00;101457.22;6157688;23;20005;-71
2022/08/21 04:08:03;;;;;;;10.10;7.05;;;;;;;14.35;100.00;101463.25;6184014;23;20379;-72
2022/08/21 04:10:31;;;;;;;9.68;6.90;;;;;;;14.29;100.00;101466.91;6183790;23;20004;-72
2022/08/21 04:12:57;;;;;;;11.55;7.40;;;;;;;14.25;100.00;101454.84;6184404;23;20005;-71
2022/08/21 04:15:24;;;;;;;12.45;7.03;;;;;;;14.17;100.00;101466.06;6184833;23;20028;-71
2022/08/21 04:17:50;;;;;;;14.02;8.25;;;;;;;14.17;100.00;101468.78;6184782;23;20013;-72
2022/08/21 04:20:17;;;;;;;15.90;7.57;;;;;;;14.11;100.00;101462.38;6183961;23;20012;-71
2022/08/21 04:22:44;;;;;;;9.50;6.85;;;;;;;14.15;100.00;101470.91;6183400;23;20079;-71
2022/08/21 04:25:10;;;;;;;12.43;7.35;;;;;;;14.12;100.00;101463.22;6157908;23;20009;-72
2022/08/21 04:27:35;;;;;;;14.43;7.18;;;;;;;14.13;100.00;101473.03;6184201;23;20029;-72
2022/08/21 04:30:01;;;;;;;11.73;7.32;;;;;;;14.15;100.00;101473.66;6158277;23;20076;-72
2022/08/21 04:32:26;;;;;;;11.43;7.57;;;;;;;14.12;100.00;101477.66;6183106;23;20015;-72
2022/08/21 04:35:06;;;;;;;11.70;7.60;;;;;;;14.14;100.00;101474.69;6157917;23;20005;-72
2022/08/21 04:37:35;;;;;;;10.88;7.20;;;;;;;14.12;100.00;101482.28;6183465;23;20005;-72
2022/08/21 04:40:00;;;;;;;14.38;7.03;;;;;;;14.08;100.00;101479.16;6184640;23;20017;-71
2022/08/21 04:42:27;;;;;;;14.02;6.63;;;;;;;14.03;100.00;101470.88;6157389;23;20005;-72
2022/08/21 04:44:53;;;;;;;14.85;6.65;;;;;;;14.05;100.00;101484.25;6184257;23;20001;-71
2022/08/21 04:47:19;;;;;;;12.30;6.50;;;;;;;14.04;100.00;101488.03;6184280;23;20001;-71
2022/08/21 04:49:48;;;;;;;12.20;6.72;;;;;;;13.98;100.00;101481.66;6183363;23;20013;-71
2022/08/21 04:52:17;;;;;;;12.85;6.57;;;;;;;13.99;100.00;101481.41;6183289;23;20036;-72
2022/08/21 04:54:45;;;;;;;10.38;6.72;;;;;;;13.97;100.00;101479.97;6183991;23;20016;-72
2022/08/21 04:57:10;;;;;;;15.07;7.07;;;;;;;13.95;100.00;101482.94;6184237;23;20001;-71
2022/08/21 04:59:40;;;;;;;12.60;6.97;;;;;;;13.96;100.00;101490.03;6183302;23;20319;-71
2022/08/21 05:02:08;;;;;;;10.82;6.45;;;;;;;13.98;100.00;101482.47;6181581;23;20012;-72
2022/08/21 05:04:37;;;;;;;13.00;6.63;;;;;;;13.93;100.00;101482.31;6183898;23;20009;-71
2022/08/21 05:07:07;;;;;;;15.70;6.53;;;;;;;13.96;100.00;101487.31;6157189;23;20006;-72
2022/08/21 05:09:34;;;;;;;10.93;6.30;;;;;;;13.93;100.00;101487.75;6183393;23;20009;-71
2022/08/21 05:12:02;;;;;;;14.77;6.90;;;;;;;13.91;100.00;101489.91;6184592;23;20064;-71
2022/08/21 05:14:27;;;;;;;14.07;7.05;;;;;;;13.92;100.00;101491.56;6157875;23;20005;-72
2022/08/21 05:16:53;;;;;;;14.40;6.60;;;;;;;13.92;100.00;101498.88;6184272;23;20423;-71
2022/08/21 05:19:18;;;;;;;11.85;6.30;;;;;;;13.95;100.00;101499.25;6185386;23;20016;-72
2022/08/21 05:21:45;;;;;;;13.75;6.80;;;;;;;13.98;100.00;101503.44;6159094;23;20013;-71
2022/08/21 05:24:11;;;;;;;13.60;6.70;;;;;;;14.05;100.00;101504.13;6185833;23;20005;-72
2022/08/21 05:26:37;;;;;;;10.18;6.20;;;;;;;14.07;100.00;101506.63;6186093;23;20327;-72
2022/08/21 05:29:03;;;;;;;8.95;5.35;;;;;;;14.06;100.00;101505.81;6185688;23;20013;-72
2022/08/21 05:31:29;;;;;;;13.63;5.88;;;;;;;14.11;100.00;101507.81;6185959;23;20024;-72
2022/08/21 05:33:55;;;;;;;12.80;5.97;;;;;;;14.11;100.00;101505.09;6186176;23;20012;-72
2022/08/21 05:36:20;;;;;;;9.85;5.60;;;;;;;14.11;100.00;101505.91;6184991;23;20012;-72
2022/08/21 05:38:46;;;;;;;14.38;6.10;;;;;;;14.12;100.00;101504.88;6158972;23;20330;-72
2022/08/21 05:41:11;;;;;;;12.25;5.20;;;;;;;14.15;100.00;101500.84;6159682;23;20013;-72
2022/08/21 05:43:37;;;;;;;12.13;5.90;;;;;;;14.24;100.00;101507.63;6185479;23;20009;-72
2022/08/21 05:46:04;;;;;;;11.88;5.75;;;;;;;14.30;100.00;101509.41;6159403;23;20497;-72
2022/08/21 05:48:30;;;;;;;15.35;6.00;;;;;;;14.33;100.00;101511.66;6159030;23;20016;-72
2022/08/21 05:50:56;;;;;;;12.25;5.53;;;;;;;14.33;100.00;101505.41;6184788;23;20012;-72
2022/08/21 05:53:23;;;;;;;11.25;5.63;;;;;;;14.36;100.00;101510.38;6185999;23;20056;-72
2022/08/21 05:55:48;;;;;;;11.60;5.57;;;;;;;14.38;100.00;101505.50;6159006;23;20008;-71
2022/08/21 05:58:16;;;;;;;14.63;5.65;;;;;;;14.39;100.00;101509.91;6185660;23;20005;-72
2022/08/21 06:00:42;;;;;;;10.13;5.50;;;;;;;14.46;100.00;101507.06;6154846;23;20005;-72
2022/08/21 06:03:12;;;;;;;17.27;5.78;;;;;;;14.47;100.00;101520.44;6185708;23;20037;-72
2022/08/21 06:05:37;;;;;;;10.93;5.00;;;;;;;14.50;100.00;101508.25;6158908;23;20005;-70
2022/08/21 06:08:03;;;;;;;11.25;5.85;;;;;;;14.61;100.00;101512.91;6185575;23;20016;-70
2022/08/21 06:10:29;;;;;;;12.85;5.22;;;;;;;14.69;100.00;101509.84;6182959;23;20013;-69
2022/08/21 06:12:55;;;;;;;12.52;5.13;;;;;;;14.75;100.00;101509.94;6185548;23;20059;-70
2022/08/21 06:15:20;;;;;;;9.32;5.15;;;;;;;14.81;100.00;101511.72;6184917;23;20005;-68
2022/08/21 06:17:45;;;;;;;11.50;5.18;;;;;;;14.88;100.00;101524.16;6185602;23;20052;-68
2022/08/21 06:20:11;;;;;;;10.05;5.10;;;;;;;14.94;100.00;101519.66;6185807;23;20080;-67
2022/08/21 06:22:36;;;;;;;14.93;5.55;;;;;;;14.96;100.00;101512.09;6185055;23;20009;-68
2022/08/21 06:25:01;;;;;;;14.90;5.70;;;;;;;14.99;100.00;101519.78;6184405;23;20009;-68
2022/08/21 06:27:26;;;;;;;14.10;6.07;;;;;;;15.01;100.00;101511.38;6185384;23;20039;-70
2022/08/21 06:29:52;;;;;;;15.40;5.75;;;;;;;15.01;100.00;101506.75;6184533;23;20033;-68
2022/08/21 06:32:17;;;;;;;13.80;5.88;;;;;;;15.11;100.00;101513.50;6185735;23;20008;-68
2022/08/21 06:34:43;;;;;;;14.43;5.60;;;;;;;15.15;100.00;101514.69;6159047;23;20004;-68
2022/08/21 06:37:08;;;;;;;11.30;4.90;;;;;;;15.18;100.00;101516.91;6185213;23;20009;-68
2022/08/21 06:39:34;;;;;;;13.80;5.25;;;;;;;15.25;100.00;101517.63;6184016;23;20016;-68
2022/08/21 06:42:00;;;;;;;11.68;5.45;;;;;;;15.31;100.00;101516.66;6185229;23;20009;-68
2022/08/21 06:44:25;;;;;;;11.07;5.20;;;;;;;15.42;100.00;101523.16;6159074;23;20012;-68
2022/08/21 06:46:51;;;;;;;12.38;4.95;;;;;;;15.47;100.00;101522.44;6184323;23;20015;-68
2022/08/21 06:49:16;;;;;;;11.80;4.95;;;;;;;15.56;100.00;101519.06;6185537;23;20054;-68
2022/08/21 06:51:41;;;;;;;14.57;5.70;;;;;;;15.57;100.00;101509.00;6183809;23;20008;-68
2022/08/21 06:54:07;;;;;;;19.10;7.13;;;;;;;15.60;100.00;101517.53;6185415;23;20005;-68
2022/08/21 06:56:34;;;;;;;9.77;4.63;;;;;;;15.65;100.00;101514.06;6184953;23;20422;-68
2022/08/21 06:59:00;;;;;;;15.75;5.32;;;;;;;15.72;100.00;101525.66;6185407;23;20088;-68
2022/08/21 07:01:26;;;;;;;15.90;5.75;;;;;;;15.77;100.00;101514.88;6182574;23;20102;-69
2022/08/21 07:03:52;;;;;;;13.45;5.15;;;;;;;15.87;100.00;101516.97;6184545;23;20009;-68
2022/08/21 07:06:17;;;;;;;17.30;5.68;;;;;;;15.91;100.00;101509.13;6183283;23;20423;-68
2022/08/21 07:08:43;;;;;;;13.65;5.63;;;;;;;15.98;100.00;101509.00;6185096;23;20323;-68
2022/08/21 07:11:18;;;;;;;11.65;5.20;;;;;;;16.10;100.00;101513.28;6184427;23;20011;-67
2022/08/21 07:13:43;;;;;;;13.23;5.45;;;;;;;16.15;100.00;101504.38;6184124;23;20045;-68
2022/08/21 07:16:08;;;;;;;18.15;5.70;;;;;;;16.28;100.00;101509.50;6185201;23;20012;-68
2022/08/21 07:18:34;;;;;;;15.45;5.30;;;;;;;16.35;100.00;101509.38;6184773;23;20008;-68
2022/08/21 07:21:03;;;;;;;15.07;5.07;;;;;;;16.46;100.00;101510.34;6185397;23;20009;-68
2022/08/21 07:23:31;;;;;;;14.68;5.03;;;;;;;16.54;100.00;101511.84;6184585;23;20004;-68
2022/08/21 07:25:59;;;;;;;13.93;5.15;;;;;;;16.62;100.00;101500.47;6184412;23;20000;-68
2022/08/21 07:28:24;;;;;;;15.80;5.32;;;;;;;16.69;100.00;101497.59;6184267;23;20005;-69
2022/08/21 07:30:55;;;;;;;19.27;5.60;;;;;;;16.78;100.00;101502.38;6183395;23;20390;-68
2022/08/21 07:33:21;;;;;;;14.98;4.97;;;;;;;16.86;100.00;101508.50;6184611;23;20016;-69
2022/08/21 07:35:47;;;;;;;18.20;5.25;;;;;;;16.83;100.00;101507.94;6183920;23;20358;-68
2022/08/21 07:38:12;;;;;;;16.50;5.55;;;;;;;16.83;100.00;101507.94;6185004;23;20423;-67
2022/08/21 07:40:38;;;;;;;21.42;4.90;;;;;;;16.87;100.00;101504.72;6182981;23;20012;-69
2022/08/21 07:43:04;;;;;;;16.25;4.68;;;;;;;16.93;100.00;101510.00;6184287;23;20036;-68
2022/08/21 07:45:29;;;;;;;14.98;4.53;;;;;;;17.00;100.00;101505.19;6182443;23;20423;-69
2022/08/21 07:47:54;;;;;;;17.67;4.60;;;;;;;17.09;100.00;101504.75;6157812;23;20475;-70
2022/08/21 07:50:20;;;;;;;12.85;4.70;;;;;;;17.13;100.00;101508.63;6184096;23;20434;-71
2022/08/21 07:52:45;;;;;;;19.83;5.00;;;;;;;17.17;100.00;101512.53;6182016;23;20041;-69
2022/08/21 07:55:14;;;;;;;14.55;4.53;;;;;;;17.15;100.00;101501.00;6184355;23;20036;-71
2022/08/21 07:57:39;;;;;;;21.05;4.72;;;;;;;17.21;100.00;101504.63;6184423;23;20023;-71
2022/08/21 08:00:08;;;;;;;10.77;4.05;;;;;;;17.20;100.00;101503.81;6182879;23;20237;-70
2022/08/21 08:02:33;;;;;;;17.63;4.82;;;;;;;17.31;100.00;101510.25;6181029;23;20005;-70
2022/08/21 08:05:00;;;;;;;13.57;3.92;;;;;;;17.38;100.00;101508.16;6184658;23;20448;-71
2022/08/21 08:07:26;;;;;;;17.60;4.68;;;;;;;17.44;100.00;101503.56;6184576;23;20013;-68
2022/08/21 08:09:51;;;;;;;23.73;4.82;;;;;;;17.49;100.00;101496.22;6183909;23;20498;-68
2022/08/21 08:12:17;;;;;;;30.85;4.97;;;;;;;17.57;100.00;101503.16;6184250;23;20025;-71
2022/08/21 08:14:42;;;;;;;14.27;3.78;;;;;;;17.60;100.00;101493.63;6183175;23;20005;-71
2022/08/21 08:17:08;;;;;;;24.60;4.65;;;;;;;17.73;100.00;101506.91;6181941;23;20005;-69
2022/08/21 08:19:33;;;;;;;25.23;4.85;;;;;;;17.72;100.00;101502.50;6184046;23;20079;-69
2022/08/21 08:21:58;;;;;;;34.53;5.07;;;;;;;17.79;100.00;101502.31;6184133;23;20099;-70
2022/08/21 08:24:23;;;;;;;21.13;3.53;;;;;;;17.85;100.00;101504.03;6184330;23;20027;-70
2022/08/21 08:26:49;;;;;;;30.77;4.68;;;;;;;17.93;100.00;101489.88;6183963;23;20326;-70
2022/08/21 08:29:14;;;;;;;23.38;4.63;;;;;;;18.04;100.00;101501.75;6184469;23;20005;-73
2022/08/21 08:31:42;;;;;;;29.88;4.38;;;;;;;18.12;100.00;101504.03;6155601;23;20056;-78
2022/08/21 08:34:11;;;;;;;31.42;6.10;;;;;;;18.14;100.00;101496.38;6157597;23;20439;-77
2022/08/21 08:36:37;;;;;;;18.02;3.80;;;;;;;18.17;100.00;101501.34;6157703;23;20374;-74
2022/08/21 08:39:05;;;;;;;42.33;5.60;;;;;;;18.20;100.00;101500.81;6184025;23;20004;-72
2022/08/21 08:41:32;;;;;;;18.98;3.70;;;;;;;18.28;100.00;101498.69;6183033;23;20001;-71
2022/08/21 08:44:04;;;;;;;44.10;5.43;;;;;;;18.31;100.00;101498.16;6182889;23;20001;-70
2022/08/21 08:46:50;;;;;;;30.77;4.78;;;;;;;18.35;100.00;101485.59;6181461;23;20023;-70
2022/08/21 08:49:36;;;;;;;29.08;4.43;;;;;;;18.44;100.00;101486.78;6183499;23;20013;-74
2022/08/21 08:52:15;;;;;;;27.90;4.90;;;;;;;18.62;99.48;101495.69;6183138;23;20509;-71
2022/08/21 08:54:49;;;;;;;14.27;3.53;;;;;;;18.62;96.82;101484.72;6185598;23;20050;-73
2022/08/21 08:57:18;;;;;;;20.58;4.10;;;;;;;18.69;98.83;101486.13;6186835;23;20005;-76
2022/08/21 08:59:47;;;;;;;10.88;2.97;;;;;;;18.63;93.35;101469.91;6182848;23;20039;-71
2022/08/21 09:02:15;;;;;;;13.70;3.38;;;;;;;18.71;95.20;101472.97;6181696;23;20005;-72
2022/08/21 09:04:41;;;;;;;14.13;3.20;;;;;;;18.74;92.75;101474.38;6159534;23;20067;-71
2022/08/21 09:07:22;;;;;;;12.55;3.47;;;;;;;18.80;93.28;101473.31;6184037;23;20005;-69
2022/08/21 09:10:21;;;;;;;11.90;2.92;;;;;;;18.90;90.38;101472.56;6186278;23;20292;-70
2022/08/21 09:12:59;;;;;;;9.43;2.53;;;;;;;18.99;87.71;101462.72;6148003;23;20047;-70
2022/08/21 09:15:33;;;;;;;11.70;3.30;;;;;;;18.98;89.19;101463.84;6155949;23;20327;-71
2022/08/21 09:18:17;;;;;;;16.70;3.38;;;;;;;19.00;86.99;101464.38;6183193;23;20089;-69
2022/08/21 09:21:09;;;;;;;11.32;2.72;;;;;;;19.04;83.88;101470.19;6185232;23;20031;-69
2022/08/21 09:23:55;;;;;;;9.60;2.25;;;;;;;19.07;84.70;101464.16;6185671;23;20001;-73
2022/08/21 09:26:27;;;;;;;14.35;3.28;;;;;;;19.15;80.07;101471.88;6185528;23;20009;-69
2022/08/21 09:28:53;;;;;;;;;;;;;;;19.25;79.58;101469.16;6185561;23;20359;-75
2022/08/21 09:31:26;;;;;;;9.35;2.53;;;;;;;19.22;76.08;101472.47;6184857;23;20046;-75
2022/08/21 09:34:02;;;;;;;8.63;2.25;;;;;;;19.32;73.14;101463.44;6184389;23;20012;-71
2022/08/21 09:36:45;;;;;;;7.35;2.33;;;;;;;19.43;75.27;101472.50;6185817;23;20005;-71
2022/08/21 09:39:13;;;;;;;8.23;2.05;;;;;;;19.40;71.92;101467.56;6185735;23;20048;-71
2022/08/21 09:41:39;;;;;;;9.02;2.22;;;;;;;19.46;70.73;101471.97;6186145;23;20005;-73
2022/08/21 09:44:07;;;;;;;8.13;2.15;;;;;;;19.53;71.43;101471.72;6185926;23;20007;-73
2022/08/21 09:46:33;;;;;;;10.50;2.60;;;;;;;19.64;73.25;101473.41;6186278;23;20001;-71
2022/08/21 09:49:01;;;;;;;9.38;2.83;;;;;;;19.76;73.89;101475.91;6185042;23;20012;-75
2022/08/21 09:51:30;;;;;;;9.75;3.15;;;;;;;19.86;73.42;101467.72;6159324;23;20067;-71
2022/08/21 09:54:07;;;;;;;9.93;2.47;;;;;;;19.96;72.74;101470.47;6185811;23;20502;-74
2022/08/21 09:59:24;;;;;;;10.98;2.67;;;;;;;20.02;70.61;101460.31;6184870;23;20020;-72
2022/08/21 10:01:51;;;;;;;10.97;2.50;;;;;;;20.16;72.67;101468.84;6156423;23;20013;-73
2022/08/21 10:04:21;;;;;;;9.93;2.80;;;;;;;20.21;71.13;101466.09;6185910;23;20001;-71
2022/08/21 10:06:47;;;;;;;9.13;3.05;;;;;;;20.25;70.72;101464.44;6184835;23;20012;-70
2022/08/21 10:09:21;;;;;;;9.88;2.33;;;;;;;20.36;71.04;101460.56;6184703;23;20013;-72
2022/08/21 10:12:00;;;;;;;13.25;3.42;;;;;;;20.39;69.14;101461.13;6183827;23;20319;-72
2022/08/21 10:14:40;;;;;;;8.18;2.28;;;;;;;20.52;69.32;101460.56;6184935;23;20001;-72
2022/08/21 10:17:27;;;;;;;16.88;3.25;;;;;;;20.57;68.22;101457.81;6182550;23;20377;-70
2022/08/21 10:20:09;;;;;;;13.73;2.88;;;;;;;20.40;67.47;101471.03;6184847;23;20033;-68
2022/08/21 10:22:37;;;;;;;12.65;2.50;;;;;;;20.33;65.97;101463.88;6184105;23;20071;-69
2022/08/21 10:25:23;;;;;;;20.92;3.13;;;;;;;20.28;67.45;101477.63;6184716;23;20005;-71
2022/08/21 10:28:01;;;;;;;15.57;3.08;;;;;;;20.23;66.35;101465.81;6184873;23;20005;-71
2022/08/21 10:30:42;;;;;;;17.23;3.30;;;;;;;20.27;65.91;101464.16;6184433;23;20001;-68
2022/08/21 10:33:16;;;;;;;15.18;3.10;;;;;;;20.39;66.77;101461.13;6158458;23;20016;-70
2022/08/21 10:35:59;;;;;;;7.75;2.10;;;;;;;20.53;64.70;101467.69;6184336;23;20005;-69
2022/08/21 10:38:46;;;;;;;35.92;6.00;;;;;;;20.57;62.75;101470.75;6185094;23;20001;-68
2022/08/21 10:41:30;;;;;;;9.68;2.97;;;;;;;20.56;63.18;101460.84;6184504;23;20088;-72
2022/08/21 10:44:23;;;;;;;16.60;3.33;;;;;;;20.60;64.74;101457.25;6183762;23;20008;-71
2022/08/21 10:47:04;;;;;;;9.40;2.63;;;;;;;20.65;63.17;101454.53;6157150;23;20208;-73
2022/08/21 10:49:44;;;;;;;18.38;3.03;;;;;;;20.77;63.55;101461.66;6156832;23;20471;-73
2022/08/21 10:52:46;;;;;;;31.40;4.32;;;;;;;20.83;63.25;101460.53;6181975;23;20032;-72
2022/08/21 10:55:18;;;;;;;13.52;3.20;;;;;;;20.71;62.82;101458.06;6182600;23;20012;-72
2022/08/21 10:57:53;;;;;;;21.65;3.80;;;;;;;20.73;63.62;101457.78;6183282;23;20024;-72
2022/08/21 11:00:21;;;;;;;17.83;2.80;;;;;;;20.71;63.01;101452.56;6181766;23;20005;-72
2022/08/21 11:03:10;;;;;;;13.77;3.30;;;;;;;20.76;63.49;101451.75;6182351;23;20012;-71
2022/08/21 11:05:44;;;;;;;9.43;2.65;;;;;;;20.79;63.15;101449.28;6179394;23;20009;-71
2022/08/21 11:08:19;;;;;;;10.52;2.67;;;;;;;20.82;62.79;101453.38;6156493;23;20391;-72
2022/08/21 11:10:53;;;;;;;17.17;3.20;;;;;;;20.87;62.76;101453.38;6179905;23;20005;-72
2022/08/21 11:13:58;;;;;;;22.65;3.55;;;;;;;20.91;63.73;101454.47;6183256;23;20040;-72
2022/08/21 11:16:31;;;;;;;9.88;2.95;;;;;;;21.04;63.60;101455.78;6130952;23;20045;-73
2022/08/21 11:19:00;;;;;;;21.08;3.67;;;;;;;20.95;62.48;101458.28;6184528;23;20087;-73
2022/08/21 11:21:38;;;;;;;14.18;3.28;;;;;;;21.04;63.56;101450.28;6183895;23;20462;-73
2022/08/21 11:24:24;;;;;;;10.18;2.75;;;;;;;21.13;60.62;101445.84;6184057;23;20426;-74